createdAt,value
2022-10-20T00:00:39.285Z,48.96
2022-10-20T00:03:31.491Z,48.91
2022-10-20T00:06:12.575Z,48.87
2022-10-20T00:08:45.794Z,48.79
2022-10-20T00:11:20.567Z,48.73
2022-10-20T00:13:55.212Z,48.79
2022-10-20T00:16:29.633Z,48.67
2022-10-20T00:19:01.815Z,48.63
2022-10-20T00:21:34.691Z,48.61
2022-10-20T00:24:06.934Z,48.47
2022-10-20T00:26:39.045Z,48.46
2022-10-20T00:29:11.276Z,48.51
2022-10-20T00:31:43.533Z,48.46
2022-10-20T00:34:15.644Z,48.41
2022-10-20T00:36:50.434Z,48.38
2022-10-20T00:39:21.931Z,48.31
2022-10-20T00:41:54.007Z,48.41
2022-10-20T00:44:51.211Z,48.29
2022-10-20T00:47:32.314Z,48.24
2022-10-20T00:50:10.004Z,48.16
2022-10-20T00:52:44.680Z,48.08
2022-10-20T00:55:20.302Z,47.98
2022-10-20T00:57:53.869Z,48.06
2022-10-20T01:00:26.879Z,48.04
2022-10-20T01:03:03.543Z,48.04
2022-10-20T01:05:35.632Z,47.93
2022-10-20T01:08:08.044Z,47.80
2022-10-20T01:10:48.712Z,47.71
2022-10-20T01:13:31.289Z,47.66
2022-10-20T01:16:14.158Z,47.70
2022-10-20T01:18:53.191Z,47.65
2022-10-20T01:21:49.126Z,47.56
2022-10-20T01:24:47.609Z,47.55
2022-10-20T01:27:38.565Z,47.53
2022-10-20T01:30:16.461Z,47.48
2022-10-20T01:33:04.426Z,47.46
2022-10-20T01:35:45.009Z,47.56
2022-10-20T01:38:26.364Z,47.41
2022-10-20T01:41:03.781Z,47.47
2022-10-20T01:43:37.888Z,47.40
2022-10-20T01:46:12.808Z,47.35
2022-10-20T01:48:47.553Z,47.36
2022-10-20T01:51:19.743Z,47.28
2022-10-20T01:53:51.928Z,47.17
2022-10-20T01:56:33.987Z,47.13
2022-10-20T01:59:27.660Z,47.16
2022-10-20T02:02:16.425Z,47.23
2022-10-20T02:05:02.301Z,47.26
2022-10-20T02:07:36.843Z,47.10
2022-10-20T02:10:14.850Z,47.01
2022-10-20T02:12:50.476Z,47.10
2022-10-20T02:15:26.955Z,47.01
2022-10-20T02:18:08.540Z,47.06
2022-10-20T02:20:42.857Z,47.24
2022-10-20T02:23:15.452Z,47.16
2022-10-20T02:25:50.809Z,47.16
2022-10-20T02:28:23.899Z,47.19
2022-10-20T02:30:56.763Z,47.23
2022-10-20T02:33:30.631Z,47.10
2022-10-20T02:36:05.696Z,47.18
2022-10-20T02:38:37.905Z,47.06
2022-10-20T02:41:10.059Z,47.08
2022-10-20T02:43:42.126Z,47.08
2022-10-20T02:46:17.287Z,47.02
2022-10-20T02:48:49.792Z,47.02
2022-10-20T02:51:21.885Z,46.93
2022-10-20T02:53:54.906Z,47.06
2022-10-20T02:56:28.893Z,47.08
2022-10-20T02:59:03.180Z,46.96
2022-10-20T03:01:35.384Z,47.00
2022-10-20T03:04:07.963Z,47.12
2022-10-20T03:06:40.045Z,47.17
2022-10-20T03:09:12.160Z,47.10
2022-10-20T03:11:44.435Z,46.97
2022-10-20T03:14:16.714Z,47.03
2022-10-20T03:16:48.893Z,47.17
2022-10-20T03:19:21.146Z,46.98
2022-10-20T03:21:53.207Z,47.05
2022-10-20T03:24:25.274Z,47.02
2022-10-20T03:26:57.349Z,47.15
2022-10-20T03:29:29.588Z,47.00
2022-10-20T03:32:04.232Z,47.13
2022-10-20T03:34:36.678Z,47.21
2022-10-20T03:37:08.777Z,47.20
2022-10-20T03:39:40.882Z,47.16
2022-10-20T03:42:12.946Z,47.29
2022-10-20T03:44:46.091Z,47.21
2022-10-20T03:47:18.144Z,47.28
2022-10-20T03:49:50.309Z,47.36
2022-10-20T03:52:22.467Z,47.39
2022-10-20T03:54:54.625Z,47.44
2022-10-20T03:57:26.710Z,47.35
2022-10-20T03:59:58.846Z,47.38
2022-10-20T04:02:36.312Z,47.48
2022-10-20T04:05:09.840Z,47.21
2022-10-20T04:07:41.919Z,47.36
2022-10-20T04:10:15.661Z,47.42
2022-10-20T04:12:48.200Z,47.39
2022-10-20T04:15:20.507Z,47.25
2022-10-20T04:17:52.957Z,47.40
2022-10-20T04:20:25.100Z,47.30
2022-10-20T04:22:57.179Z,47.39
2022-10-20T04:25:29.299Z,47.48
2022-10-20T04:28:01.468Z,47.47
2022-10-20T04:30:33.541Z,47.47
2022-10-20T04:33:05.620Z,47.51
2022-10-20T04:35:37.892Z,47.60
2022-10-20T04:38:10.148Z,47.57
2022-10-20T04:40:42.204Z,47.55
2022-10-20T04:43:14.288Z,47.61
2022-10-20T04:45:46.394Z,47.57
2022-10-20T04:48:18.680Z,47.74
2022-10-20T04:51:00.379Z,47.70
2022-10-20T04:53:32.483Z,47.85
2022-10-20T04:56:08.695Z,47.86
2022-10-20T04:58:40.827Z,47.86
2022-10-20T05:01:13.130Z,47.93
2022-10-20T05:03:45.419Z,47.82
2022-10-20T05:06:19.927Z,47.84
2022-10-20T05:08:54.337Z,48.02
2022-10-20T05:11:28.888Z,47.96
2022-10-20T05:14:01.001Z,48.09
2022-10-20T05:16:33.027Z,48.10
2022-10-20T05:19:05.308Z,48.36
2022-10-20T05:21:37.372Z,48.30
2022-10-20T05:24:09.535Z,48.34
2022-10-20T05:26:41.602Z,48.52
2022-10-20T05:29:14.337Z,48.60
2022-10-20T05:31:46.837Z,48.42
2022-10-20T05:34:19.455Z,48.45
2022-10-20T05:36:53.463Z,48.54
2022-10-20T05:39:25.716Z,48.31
2022-10-20T05:41:57.745Z,48.49
2022-10-20T05:44:29.974Z,48.29
2022-10-20T05:47:02.017Z,48.31
2022-10-20T05:49:34.055Z,48.35
2022-10-20T05:52:06.164Z,48.39
2022-10-20T05:54:37.919Z,48.58
2022-10-20T05:57:09.967Z,48.57
2022-10-20T05:59:42.044Z,48.61
2022-10-20T06:02:14.576Z,48.55
2022-10-20T06:04:46.880Z,48.64
2022-10-20T06:07:18.943Z,48.68
2022-10-20T06:09:51.695Z,48.79
2022-10-20T06:12:23.772Z,48.71
2022-10-20T06:14:55.784Z,48.82
2022-10-20T06:17:27.990Z,48.89
2022-10-20T06:20:00.070Z,48.74
2022-10-20T06:22:32.129Z,48.71
2022-10-20T06:25:04.248Z,48.54
2022-10-20T06:27:36.382Z,48.43
2022-10-20T06:30:10.250Z,48.32
2022-10-20T06:32:42.325Z,48.28
2022-10-20T06:35:14.391Z,48.11
2022-10-20T06:37:46.359Z,48.02
2022-10-20T06:40:18.874Z,47.95
2022-10-20T06:42:51.031Z,47.72
2022-10-20T06:45:23.138Z,47.78
2022-10-20T06:47:55.288Z,47.61
2022-10-20T06:50:27.321Z,47.46
2022-10-20T06:52:59.402Z,47.56
2022-10-20T06:55:31.595Z,47.35
2022-10-20T06:58:04.111Z,47.38
2022-10-20T07:00:36.307Z,47.53
2022-10-20T07:03:08.462Z,47.20
2022-10-20T07:05:40.544Z,47.11
2022-10-20T07:08:12.729Z,46.95
2022-10-20T07:10:44.803Z,46.89
2022-10-20T07:13:17.049Z,46.52
2022-10-20T07:15:49.291Z,46.73
2022-10-20T07:18:21.383Z,46.87
2022-10-20T07:20:57.033Z,47.06
2022-10-20T07:23:30.127Z,46.98
2022-10-20T07:26:06.564Z,46.84
2022-10-20T07:28:41.181Z,46.73
2022-10-20T07:31:15.545Z,46.73
2022-10-20T07:34:01.191Z,46.78
2022-10-20T07:36:42.489Z,46.63
2022-10-20T07:39:15.497Z,46.69
2022-10-20T07:41:48.359Z,46.74
2022-10-20T07:44:21.016Z,46.65
2022-10-20T07:46:53.172Z,46.67
2022-10-20T07:49:43.569Z,46.69
2022-10-20T07:52:17.208Z,46.59
2022-10-20T07:54:49.419Z,46.58
2022-10-20T07:57:21.624Z,46.40
2022-10-20T07:59:53.782Z,46.57
2022-10-20T08:02:26.064Z,46.43
2022-10-20T08:04:58.176Z,46.37
2022-10-20T08:07:30.276Z,46.38
2022-10-20T08:10:02.405Z,46.25
2022-10-20T08:12:34.999Z,46.09
2022-10-20T08:15:08.724Z,46.21
2022-10-20T08:17:40.983Z,46.15
2022-10-20T08:20:14.545Z,45.99
2022-10-20T08:22:46.712Z,45.83
2022-10-20T08:25:19.244Z,45.86
2022-10-20T08:27:51.447Z,45.82
2022-10-20T08:30:24.577Z,45.75
2022-10-20T08:32:56.970Z,45.86
2022-10-20T08:35:29.298Z,45.73
2022-10-20T08:38:01.513Z,45.71
2022-10-20T08:40:35.521Z,45.42
2022-10-20T08:43:08.320Z,45.45
2022-10-20T08:45:42.359Z,45.57
2022-10-20T08:48:19.708Z,45.48
2022-10-20T08:50:53.855Z,45.02
2022-10-20T08:53:27.751Z,45.05
2022-10-20T08:56:00.433Z,44.51
2022-10-20T08:58:32.712Z,44.27
2022-10-20T09:01:15.745Z,43.94
2022-10-20T09:03:50.840Z,44.07
2022-10-20T09:06:23.102Z,43.99
2022-10-20T09:08:56.458Z,43.85
2022-10-20T09:11:34.747Z,43.65
2022-10-20T09:14:09.577Z,43.29
2022-10-20T09:16:59.321Z,43.30
2022-10-20T09:19:33.240Z,42.99
2022-10-20T09:22:08.477Z,42.76
2022-10-20T09:24:42.869Z,42.07
2022-10-20T09:27:31.153Z,42.04
2022-10-20T09:30:17.401Z,42.18
2022-10-20T09:32:50.682Z,42.20
2022-10-20T09:35:29.185Z,42.18
2022-10-20T09:38:05.943Z,41.88
2022-10-20T09:40:44.927Z,41.82
2022-10-20T09:43:20.006Z,41.92
2022-10-20T09:45:56.460Z,41.81
2022-10-20T09:48:32.100Z,41.81
2022-10-20T09:51:07.452Z,41.76
2022-10-20T09:53:52.855Z,41.66
2022-10-20T09:56:31.376Z,41.74
2022-10-20T09:59:07.620Z,41.53
2022-10-20T10:01:56.192Z,41.30
2022-10-20T10:04:37.655Z,41.43
2022-10-20T10:07:33.132Z,41.43
2022-10-20T10:10:08.873Z,41.36
2022-10-20T10:12:41.328Z,41.09
2022-10-20T10:15:28.311Z,41.04
2022-10-20T10:18:01.785Z,41.20
2022-10-20T10:20:38.883Z,41.07
2022-10-20T10:23:20.764Z,40.81
2022-10-20T10:25:56.600Z,40.79
2022-10-20T10:28:42.148Z,40.92
2022-10-20T10:31:27.480Z,40.59
2022-10-20T10:34:32.167Z,40.50
2022-10-20T10:37:04.275Z,40.36
2022-10-20T10:39:38.730Z,40.22
2022-10-20T10:42:38.920Z,40.07
2022-10-20T10:45:44.060Z,39.81
2022-10-20T10:48:53.080Z,40.01
2022-10-20T10:51:37.955Z,39.96
2022-10-20T10:54:29.663Z,39.77
2022-10-20T10:57:08.014Z,39.55
2022-10-20T10:59:45.695Z,39.77
2022-10-20T11:02:52.435Z,39.72
2022-10-20T11:05:34.062Z,39.62
2022-10-20T11:08:20.372Z,39.50
2022-10-20T11:11:01.359Z,39.22
2022-10-20T11:13:40.038Z,39.43
2022-10-20T11:16:22.480Z,39.35
2022-10-20T11:19:19.120Z,39.34
2022-10-20T11:22:03.881Z,39.24
2022-10-20T11:24:46.933Z,39.26
2022-10-20T11:27:21.836Z,39.15
2022-10-20T11:30:04.711Z,39.28
2022-10-20T11:32:42.697Z,39.19
2022-10-20T11:35:30.323Z,39.24
2022-10-20T11:38:19.549Z,39.23
2022-10-20T11:41:00.024Z,39.32
2022-10-20T11:43:38.399Z,39.23
2022-10-20T11:46:14.091Z,39.08
2022-10-20T11:48:52.095Z,38.97
2022-10-20T11:51:56.695Z,39.05
2022-10-20T11:55:13.453Z,39.11
2022-10-20T11:58:02.811Z,39.04
2022-10-20T12:00:59.672Z,39.12
2022-10-20T12:03:54.220Z,39.07
2022-10-20T12:06:52.500Z,39.12
2022-10-20T12:09:44.229Z,39.08
2022-10-20T12:12:21.206Z,38.95
2022-10-20T12:15:00.664Z,38.96
2022-10-20T12:17:42.708Z,38.96
2022-10-20T12:20:51.915Z,38.87
2022-10-20T12:24:05.980Z,38.71
2022-10-20T12:27:25.698Z,38.82
2022-10-20T12:30:07.502Z,38.83
2022-10-20T12:32:58.592Z,38.85
2022-10-20T12:36:03.125Z,38.83
2022-10-20T12:38:35.327Z,38.84
2022-10-20T12:41:09.535Z,38.79
2022-10-20T12:43:52.465Z,38.71
2022-10-20T12:46:31.443Z,38.76
2022-10-20T12:49:10.989Z,38.68
2022-10-20T12:51:54.307Z,38.71
2022-10-20T12:54:31.360Z,38.72
2022-10-20T12:57:07.298Z,38.72
2022-10-20T12:59:41.263Z,38.68
2022-10-20T13:02:52.736Z,38.67
2022-10-20T13:05:42.044Z,38.62
2022-10-20T13:08:34.775Z,38.62
2022-10-20T13:11:41.319Z,38.64
2022-10-20T13:14:42.938Z,38.69
2022-10-20T13:17:27.835Z,38.68
2022-10-20T13:20:04.103Z,38.61
2022-10-20T13:22:43.509Z,38.50
2022-10-20T13:25:41.710Z,38.46
2022-10-20T13:28:22.871Z,38.51
2022-10-20T13:31:12.116Z,38.49
2022-10-20T13:34:04.571Z,38.51
2022-10-20T13:37:00.102Z,38.56
2022-10-20T13:39:40.767Z,38.47
2022-10-20T13:42:24.996Z,38.43
2022-10-20T13:45:04.713Z,38.43
2022-10-20T13:48:05.693Z,38.39
2022-10-20T13:50:41.366Z,38.46
2022-10-20T13:53:22.354Z,38.41
2022-10-20T13:56:03.191Z,38.48
2022-10-20T13:58:36.437Z,38.50
2022-10-20T14:01:16.928Z,38.50
2022-10-20T14:03:50.440Z,38.50
2022-10-20T14:06:37.292Z,38.44
2022-10-20T14:09:17.085Z,38.44
2022-10-20T14:11:51.684Z,38.42
2022-10-20T14:14:27.481Z,38.43
2022-10-20T14:16:59.140Z,38.48
2022-10-20T14:19:33.751Z,38.54
2022-10-20T14:22:19.557Z,38.38
2022-10-20T14:24:55.489Z,38.45
2022-10-20T14:27:30.472Z,38.62
2022-10-20T14:30:05.574Z,38.62
2022-10-20T14:32:41.669Z,38.70
2022-10-20T14:35:28.647Z,38.69
2022-10-20T14:38:04.442Z,38.76
2022-10-20T14:40:36.333Z,38.79
2022-10-20T14:43:15.892Z,38.78
2022-10-20T14:45:57.820Z,38.80
2022-10-20T14:48:33.820Z,38.86
2022-10-20T14:51:26.198Z,38.94
2022-10-20T14:54:24.334Z,38.90
2022-10-20T14:56:58.457Z,38.86
2022-10-20T14:59:32.894Z,38.88
2022-10-20T15:02:12.414Z,38.93
2022-10-20T15:04:46.039Z,38.99
2022-10-20T15:07:20.474Z,39.07
2022-10-20T15:09:55.289Z,39.11
2022-10-20T15:12:33.244Z,39.14
2022-10-20T15:15:20.549Z,39.07
2022-10-20T15:17:55.253Z,39.18
2022-10-20T15:20:38.864Z,39.16
2022-10-20T15:23:13.500Z,39.35
2022-10-20T15:25:51.410Z,39.37
2022-10-20T15:28:31.605Z,39.37
2022-10-20T15:31:05.368Z,39.41
2022-10-20T15:33:37.430Z,39.40
2022-10-20T15:36:16.267Z,39.50
2022-10-20T15:38:48.732Z,39.48
2022-10-20T15:41:23.027Z,39.54
2022-10-20T15:43:55.425Z,39.52
2022-10-20T15:46:27.560Z,39.59
2022-10-20T15:48:59.654Z,39.54
2022-10-20T15:51:34.615Z,39.53
2022-10-20T15:54:06.972Z,39.74
2022-10-20T15:56:39.072Z,39.69
2022-10-20T15:59:11.329Z,39.70
2022-10-20T16:01:43.675Z,39.72
2022-10-20T16:04:26.255Z,39.74
2022-10-20T16:07:02.624Z,39.79
2022-10-20T16:09:35.269Z,39.82
2022-10-20T16:12:08.075Z,39.73
2022-10-20T16:14:40.403Z,39.71
2022-10-20T16:17:12.495Z,39.81
2022-10-20T16:19:44.616Z,39.78
2022-10-20T16:22:16.672Z,39.94
2022-10-20T16:24:49.249Z,39.77
2022-10-20T16:27:21.459Z,39.96
2022-10-20T16:29:54.396Z,39.94
2022-10-20T16:32:29.118Z,40.00
2022-10-20T16:35:03.465Z,39.95
2022-10-20T16:37:36.107Z,39.93
2022-10-20T16:40:10.276Z,40.16
2022-10-20T16:42:42.376Z,40.17
2022-10-20T16:45:14.612Z,40.20
2022-10-20T16:47:46.936Z,40.15
2022-10-20T16:50:19.319Z,40.35
2022-10-20T16:52:51.393Z,40.34
2022-10-20T16:55:23.456Z,40.29
2022-10-20T16:57:56.000Z,40.38
2022-10-20T17:00:28.064Z,40.37
2022-10-20T17:03:00.203Z,40.37
2022-10-20T17:05:32.320Z,40.48
2022-10-20T17:08:04.555Z,40.52
2022-10-20T17:10:39.112Z,40.52
2022-10-20T17:13:11.534Z,40.55
2022-10-20T17:15:43.668Z,40.58
2022-10-20T17:18:15.739Z,40.74
2022-10-20T17:20:48.308Z,40.58
2022-10-20T17:23:20.373Z,40.83
2022-10-20T17:25:52.937Z,40.94
2022-10-20T17:28:25.008Z,40.81
2022-10-20T17:30:58.426Z,40.86
2022-10-20T17:33:32.091Z,40.93
2022-10-20T17:36:04.932Z,40.74
2022-10-20T17:38:37.196Z,40.93
2022-10-20T17:41:10.691Z,40.87
2022-10-20T17:43:43.235Z,40.92
2022-10-20T17:46:17.388Z,40.98
2022-10-20T17:48:49.867Z,40.98
2022-10-20T17:51:24.546Z,41.17
2022-10-20T17:53:58.604Z,41.15
2022-10-20T17:56:32.699Z,41.27
2022-10-20T17:59:07.588Z,41.33
2022-10-20T18:01:41.954Z,41.26
2022-10-20T18:04:15.920Z,41.42
2022-10-20T18:06:48.619Z,41.36
2022-10-20T18:09:21.247Z,41.56
2022-10-20T18:11:53.747Z,41.58
2022-10-20T18:14:25.931Z,41.56
2022-10-20T18:16:57.997Z,41.65
2022-10-20T18:19:30.166Z,41.75
2022-10-20T18:22:02.373Z,41.71
2022-10-20T18:24:35.671Z,41.79
2022-10-20T18:27:08.032Z,41.69
2022-10-20T18:29:40.454Z,42.00
2022-10-20T18:32:12.773Z,41.90
2022-10-20T18:34:44.800Z,41.89
2022-10-20T18:37:19.377Z,41.96
2022-10-20T18:39:51.508Z,41.94
2022-10-20T18:42:23.603Z,42.02
2022-10-20T18:44:55.677Z,42.16
2022-10-20T18:47:27.785Z,42.13
2022-10-20T18:49:59.840Z,42.19
2022-10-20T18:52:31.935Z,42.24
2022-10-20T18:55:04.529Z,42.15
2022-10-20T18:57:39.653Z,42.26
2022-10-20T19:00:14.425Z,42.34
2022-10-20T19:02:50.842Z,42.40
2022-10-20T19:05:22.959Z,42.28
2022-10-20T19:07:55.003Z,42.37
2022-10-20T19:10:27.487Z,42.30
2022-10-20T19:12:59.576Z,42.50
2022-10-20T19:15:31.674Z,42.38
2022-10-20T19:18:03.743Z,42.33
2022-10-20T19:20:35.915Z,42.44
2022-10-20T19:23:07.984Z,42.67
2022-10-20T19:25:40.074Z,42.56
2022-10-20T19:28:12.773Z,42.50
2022-10-20T19:30:44.860Z,42.39
2022-10-20T19:33:17.014Z,42.63
2022-10-20T19:35:49.928Z,42.70
2022-10-20T19:38:22.152Z,42.72
2022-10-20T19:40:54.747Z,42.66
2022-10-20T19:43:26.892Z,42.64
2022-10-20T19:45:59.464Z,42.52
2022-10-20T19:48:31.604Z,42.35
2022-10-20T19:51:04.110Z,42.11
2022-10-20T19:53:37.473Z,41.93
2022-10-20T19:56:12.092Z,41.73
2022-10-20T19:58:46.683Z,41.57
2022-10-20T20:01:19.906Z,41.03
2022-10-20T20:03:52.246Z,40.99
2022-10-20T20:06:26.564Z,40.42
2022-10-20T20:09:01.451Z,40.34
2022-10-20T20:11:34.868Z,40.12
2022-10-20T20:14:09.300Z,39.97
2022-10-20T20:19:20.502Z,39.43
2022-10-20T20:21:52.591Z,39.27
2022-10-20T20:24:24.757Z,38.98
2022-10-20T20:26:56.812Z,38.64
2022-10-20T20:29:29.147Z,38.65
2022-10-20T20:32:01.236Z,38.59
2022-10-20T20:34:33.335Z,38.27
2022-10-20T20:37:05.441Z,38.11
2022-10-20T20:39:37.624Z,37.81
2022-10-20T20:42:09.690Z,37.93
2022-10-20T20:44:41.852Z,37.74
2022-10-20T20:47:14.048Z,37.64
2022-10-20T20:49:46.148Z,37.63
2022-10-20T20:52:18.319Z,37.60
2022-10-20T20:54:50.417Z,37.55
2022-10-20T20:57:22.584Z,37.58
2022-10-20T20:59:54.776Z,37.51
2022-10-20T21:02:26.835Z,37.45
2022-10-20T21:04:58.903Z,37.29
2022-10-20T21:07:30.961Z,37.04
2022-10-20T21:10:03.073Z,37.17
2022-10-20T21:12:35.506Z,37.02
2022-10-20T21:15:10.062Z,36.85
2022-10-20T21:17:42.147Z,36.82
2022-10-20T21:20:14.540Z,36.86
2022-10-20T21:22:46.712Z,36.85
2022-10-20T21:25:18.988Z,36.74
2022-10-20T21:27:51.527Z,36.63
2022-10-20T21:30:23.753Z,36.57
2022-10-20T21:32:55.897Z,36.51
2022-10-20T21:35:28.128Z,36.52
2022-10-20T21:38:00.351Z,36.31
2022-10-20T21:40:32.877Z,36.33
2022-10-20T21:43:04.987Z,36.36
2022-10-20T21:45:37.132Z,36.35
2022-10-20T21:48:09.656Z,36.25
2022-10-20T21:50:41.757Z,36.14
2022-10-20T21:53:13.833Z,36.21
2022-10-20T21:55:45.905Z,36.12
2022-10-20T21:58:20.355Z,36.15
2022-10-20T22:00:54.208Z,36.08
2022-10-20T22:03:26.845Z,35.97
2022-10-20T22:05:58.933Z,36.10
2022-10-20T22:08:31.363Z,35.96
2022-10-20T22:11:07.288Z,35.84
2022-10-20T22:13:40.271Z,35.85
2022-10-20T22:16:15.560Z,35.91
2022-10-20T22:18:47.885Z,35.95
2022-10-20T22:21:20.898Z,35.90
2022-10-20T22:23:55.754Z,35.80
2022-10-20T22:26:29.411Z,35.88
2022-10-20T22:29:02.524Z,35.78
2022-10-20T22:31:34.550Z,35.88
2022-10-20T22:34:07.243Z,35.86
2022-10-20T22:36:40.984Z,35.78
2022-10-20T22:41:50.717Z,35.82
2022-10-20T22:44:22.987Z,35.85
2022-10-20T22:46:55.080Z,35.91
2022-10-20T22:49:27.210Z,35.94
2022-10-20T22:51:59.384Z,35.91
2022-10-20T22:54:31.483Z,35.87
2022-10-20T22:57:03.500Z,35.79
2022-10-20T22:59:35.593Z,35.78
2022-10-20T23:02:07.626Z,35.93
2022-10-20T23:04:39.596Z,35.93
2022-10-20T23:07:11.730Z,35.94
2022-10-20T23:09:43.854Z,35.90
2022-10-20T23:12:15.922Z,35.96
2022-10-20T23:14:47.979Z,35.95
2022-10-20T23:17:20.008Z,35.88
2022-10-20T23:19:52.058Z,35.91
2022-10-20T23:22:24.290Z,35.96
2022-10-20T23:24:56.386Z,36.03
2022-10-20T23:27:28.473Z,36.11
2022-10-20T23:30:00.602Z,36.10
2022-10-20T23:32:33.881Z,36.16
2022-10-20T23:35:06.497Z,36.21
2022-10-20T23:37:39.914Z,36.22
2022-10-20T23:40:13.954Z,36.23
2022-10-20T23:42:45.993Z,36.21
2022-10-20T23:45:18.144Z,36.27
2022-10-20T23:47:50.304Z,36.28
2022-10-20T23:50:23.583Z,36.41
2022-10-20T23:52:55.742Z,36.35
2022-10-20T23:55:27.941Z,36.35
2022-10-20T23:58:00.044Z,36.27
